Time;durP1;ratioP1;P1;durP2;ratioP2;P2;SDS_P1;SDS_P2;PMS_P1;PMS_P2;Temp;Humidity;BMP_temperature;BMP_pressure;BME280_temperature;BME280_humidity;BME280_pressure;Samples;Min_cycle;Max_cycle;Signal;HPM_P1;HPM_P2
2023/05/05 00:00:51;;;;;;;;;;;11.40;99.90;;;;;;5060715;28;20067;-77
2023/05/05 00:03:19;;;;;;;7.00;3.20;;;11.40;99.90;;;;;;5077446;28;19916;-77
2023/05/05 00:05:46;;;;;;;7.43;3.53;;;11.40;99.90;;;;;;5077455;28;20531;-77
2023/05/05 00:08:11;;;;;;;7.75;3.40;;;11.40;99.90;;;;;;5077790;28;20056;-78
2023/05/05 00:10:37;;;;;;;7.60;3.50;;;11.40;99.90;;;;;;5077753;28;20051;-77
2023/05/05 00:13:03;;;;;;;14.82;3.42;;;11.30;99.90;;;;;;5077137;28;20432;-77
2023/05/05 00:15:29;;;;;;;11.73;3.58;;;11.30;99.90;;;;;;5077559;28;20044;-77
2023/05/05 00:17:54;;;;;;;6.47;3.28;;;11.30;99.90;;;;;;5076700;28;20079;-77
2023/05/05 00:20:21;;;;;;;7.18;3.53;;;11.30;99.90;;;;;;5060522;28;20579;-77
2023/05/05 00:22:47;;;;;;;7.13;3.40;;;11.30;99.90;;;;;;5076787;28;20071;-77
2023/05/05 00:25:13;;;;;;;6.82;3.28;;;11.30;99.90;;;;;;5060548;28;20071;-77
2023/05/05 00:27:39;;;;;;;6.45;3.28;;;11.30;99.90;;;;;;5077165;28;20464;-77
2023/05/05 00:30:05;;;;;;;7.18;3.85;;;11.30;99.90;;;;;;5077002;28;20066;-77
2023/05/05 00:32:31;;;;;;;7.85;3.33;;;11.30;99.90;;;;;;5076978;28;20093;-77
2023/05/05 00:34:56;;;;;;;7.95;4.32;;;11.30;99.90;;;;;;5060058;28;20048;-77
2023/05/05 00:37:22;;;;;;;9.00;3.50;;;11.30;99.90;;;;;;5059050;28;20046;-77
2023/05/05 00:39:48;;;;;;;9.03;4.23;;;11.20;99.90;;;;;;5059999;28;20281;-77
2023/05/05 00:42:13;;;;;;;8.47;3.77;;;11.20;99.90;;;;;;5076810;28;20282;-77
2023/05/05 00:44:40;;;;;;;7.17;3.43;;;11.20;99.90;;;;;;5077151;28;20279;-76
2023/05/05 00:47:11;;;;;;;7.07;3.80;;;11.20;99.90;;;;;;5076522;28;20286;-76
2023/05/05 00:49:38;;;;;;;8.98;3.30;;;11.20;99.90;;;;;;5076695;28;20112;-77
2023/05/05 00:52:06;;;;;;;6.00;3.40;;;11.20;99.90;;;;;;5059805;28;20048;-78
2023/05/05 00:54:33;;;;;;;7.43;4.22;;;11.20;99.90;;;;;;5077036;28;20420;-76
2023/05/05 00:57:01;;;;;;;5.93;3.67;;;11.20;99.90;;;;;;5076753;28;20044;-77
2023/05/05 00:59:31;;;;;;;11.88;3.05;;;11.20;99.90;;;;;;5076388;28;20052;-77
2023/05/05 01:01:57;;;;;;;9.70;3.67;;;11.20;99.90;;;;;;5075922;28;20040;-76
2023/05/05 01:04:24;;;;;;;5.82;3.35;;;11.20;99.90;;;;;;5059486;28;20491;-76
2023/05/05 01:07:17;;;;;;;6.65;3.28;;;11.20;99.90;;;;;;5076538;28;20094;-77
2023/05/05 01:10:01;;;;;;;5.20;3.63;;;11.30;99.90;;;;;;5067448;28;20028;-77
2023/05/05 01:12:50;;;;;;;6.20;3.53;;;11.30;99.90;;;;;;5075148;28;20063;-77
2023/05/05 01:15:27;;;;;;;7.47;3.58;;;11.30;99.90;;;;;;5076231;28;20472;-77
2023/05/05 01:18:05;;;;;;;6.13;3.25;;;11.30;99.90;;;;;;5059636;28;20071;-77
2023/05/05 01:20:53;;;;;;;5.05;2.97;;;11.30;99.90;;;;;;5075883;28;20032;-77
2023/05/05 01:23:32;;;;;;;5.85;3.28;;;11.30;99.90;;;;;;5075922;28;20123;-76
2023/05/05 01:26:30;;;;;;;9.43;3.33;;;11.30;99.90;;;;;;5071958;28;20119;-78
2023/05/05 01:29:10;;;;;;;;;;;11.30;99.90;;;;;;5020943;28;20515;-77
2023/05/05 01:31:51;;;;;;;5.20;3.15;;;11.30;99.90;;;;;;5072597;28;20367;-76
2023/05/05 01:34:23;;;;;;;7.38;3.47;;;11.30;99.90;;;;;;5055236;28;20047;-77
2023/05/05 01:37:08;;;;;;;5.75;3.17;;;11.30;99.90;;;;;;5104952;28;20498;-77
2023/05/05 01:39:36;;;;;;;8.98;3.58;;;11.40;99.90;;;;;;5075502;28;20093;-76
2023/05/05 01:42:08;;;;;;;6.07;3.45;;;11.30;99.90;;;;;;5075305;28;20072;-77
2023/05/05 01:44:36;;;;;;;7.85;2.97;;;11.30;99.90;;;;;;5058931;28;20137;-77
2023/05/05 01:47:03;;;;;;;8.65;3.78;;;11.30;99.90;;;;;;5093458;28;20402;-78
2023/05/05 01:49:31;;;;;;;6.72;3.60;;;11.30;99.90;;;;;;5058516;28;20032;-76
2023/05/05 01:51:59;;;;;;;4.97;3.00;;;11.30;99.90;;;;;;5058507;28;20040;-76
2023/05/05 01:54:26;;;;;;;4.80;3.08;;;11.30;99.90;;;;;;5075302;28;20058;-77
2023/05/05 01:56:55;;;;;;;5.90;3.30;;;11.30;99.90;;;;;;5059059;28;20441;-75
2023/05/05 01:59:22;;;;;;;9.02;3.55;;;11.30;99.90;;;;;;5075079;28;20048;-76
2023/05/05 02:01:49;;;;;;;7.10;3.35;;;11.30;99.90;;;;;;5058656;28;20400;-76
2023/05/05 02:04:17;;;;;;;8.52;3.40;;;11.30;99.90;;;;;;5058100;28;20047;-77
2023/05/05 02:06:46;;;;;;;7.53;3.40;;;11.30;99.90;;;;;;5058527;28;20044;-78
2023/05/05 02:09:13;;;;;;;9.48;3.33;;;11.30;99.90;;;;;;5075303;28;20054;-78
2023/05/05 02:11:39;;;;;;;8.98;3.35;;;11.30;99.90;;;;;;5056032;28;20407;-78
2023/05/05 02:14:07;;;;;;;6.30;3.13;;;11.30;99.90;;;;;;5074606;28;20039;-77
2023/05/05 02:16:36;;;;;;;7.00;3.30;;;11.30;99.90;;;;;;5074429;28;20040;-77
2023/05/05 02:19:05;;;;;;;7.40;3.20;;;11.30;99.90;;;;;;5074552;28;20122;-78
2023/05/05 02:21:32;;;;;;;7.20;3.25;;;11.30;99.90;;;;;;5074767;28;20036;-78
2023/05/05 02:23:59;;;;;;;7.00;3.15;;;11.30;99.90;;;;;;5057854;28;20065;-77
2023/05/05 02:26:25;;;;;;;;;;;11.30;99.90;;;;;;5058307;28;20040;-77
2023/05/05 02:29:02;;;;;;;7.20;3.17;;;11.30;99.90;;;;;;5058286;28;20002;-77
2023/05/05 02:31:33;;;;;;;7.13;3.50;;;11.30;99.90;;;;;;5074512;28;20078;-77
2023/05/05 02:34:02;;;;;;;6.90;3.30;;;11.30;99.90;;;;;;5074505;28;20040;-76
2023/05/05 02:36:31;;;;;;;6.13;3.05;;;11.30;99.90;;;;;;5072315;28;20107;-77
2023/05/05 02:39:03;;;;;;;10.48;3.20;;;11.30;99.90;;;;;;5074283;28;20115;-77
2023/05/05 02:41:31;;;;;;;5.88;3.50;;;11.30;99.90;;;;;;5070133;28;20031;-77
2023/05/05 02:43:59;;;;;;;7.00;3.35;;;11.40;99.90;;;;;;5057415;28;20032;-76
2023/05/05 02:46:25;;;;;;;6.32;2.97;;;11.30;99.90;;;;;;5057662;28;20105;-77
2023/05/05 02:48:51;;;;;;;8.13;3.53;;;11.30;99.90;;;;;;5057713;28;20050;-76
2023/05/05 02:51:16;;;;;;;6.28;3.17;;;11.30;99.90;;;;;;5074011;28;20127;-76
2023/05/05 02:53:42;;;;;;;10.43;3.78;;;11.20;99.90;;;;;;5057354;28;20047;-76
2023/05/05 02:56:28;;;;;;;8.63;3.92;;;11.20;99.90;;;;;;5074163;28;20085;-76
2023/05/05 02:59:18;;;;;;;6.95;3.15;;;11.20;99.90;;;;;;5054887;28;20523;-76
2023/05/05 03:02:10;;;;;;;5.32;3.50;;;11.20;99.90;;;;;;5072723;28;20052;-77
2023/05/05 03:04:42;;;;;;;12.30;4.00;;;11.10;99.90;;;;;;5070670;28;20071;-77
2023/05/05 03:07:38;;;;;;;8.30;3.85;;;11.10;99.90;;;;;;5072075;28;20124;-78
2023/05/05 03:10:03;;;;;;;8.13;3.40;;;11.10;99.90;;;;;;5071852;28;20044;-76
2023/05/05 03:12:37;;;;;;;7.15;4.22;;;11.00;99.90;;;;;;5074303;28;20503;-77
2023/05/05 03:15:04;;;;;;;9.07;4.15;;;11.00;99.90;;;;;;5071405;28;20032;-76
2023/05/05 03:17:31;;;;;;;7.55;3.15;;;11.00;99.90;;;;;;5040889;28;20506;-77
2023/05/05 03:19:57;;;;;;;6.22;3.25;;;11.60;99.90;;;;;;5073717;28;20048;-77
2023/05/05 03:22:23;;;;;;;4.70;3.00;;;10.90;99.90;;;;;;5071592;28;20380;-77
2023/05/05 03:24:52;;;;;;;6.88;3.35;;;11.00;99.90;;;;;;5073809;28;20040;-77
2023/05/05 03:27:19;;;;;;;8.73;3.40;;;11.00;99.90;;;;;;5073815;28;20491;-77
2023/05/05 03:29:45;;;;;;;7.63;3.38;;;11.00;99.90;;;;;;5074076;28;20055;-77
2023/05/05 03:32:10;;;;;;;6.43;3.90;;;11.00;99.90;;;;;;5073939;28;20487;-77
2023/05/05 03:34:36;;;;;;;7.87;3.17;;;11.00;99.90;;;;;;5073938;28;20046;-77
2023/05/05 03:37:02;;;;;;;8.52;3.92;;;11.00;99.90;;;;;;5073515;28;20323;-78
2023/05/05 03:39:28;;;;;;;6.60;4.15;;;11.00;99.90;;;;;;5073666;28;20037;-77
2023/05/05 03:41:53;;;;;;;7.90;3.42;;;11.00;99.90;;;;;;5040331;28;20365;-77
2023/05/05 03:44:19;;;;;;;16.48;4.00;;;10.90;99.90;;;;;;5056359;28;20076;-77
2023/05/05 03:46:45;;;;;;;7.65;3.80;;;10.90;99.90;;;;;;5073846;28;20403;-77
2023/05/05 03:49:10;;;;;;;8.53;3.73;;;11.00;99.90;;;;;;5073913;28;20051;-77
2023/05/05 03:51:36;;;;;;;6.47;3.30;;;11.00;99.90;;;;;;5071492;28;20306;-77
2023/05/05 03:54:02;;;;;;;8.30;3.30;;;11.00;99.90;;;;;;5073545;28;20728;-77
2023/05/05 03:56:28;;;;;;;6.50;3.10;;;11.00;99.90;;;;;;5057078;28;20067;-77
2023/05/05 03:58:53;;;;;;;7.37;3.10;;;11.00;99.90;;;;;;5073431;28;20040;-77
2023/05/05 04:01:19;;;;;;;9.13;3.30;;;11.10;99.90;;;;;;5071035;28;20317;-76
2023/05/05 04:03:45;;;;;;;8.95;3.63;;;11.10;99.90;;;;;;5057100;28;20043;-77
2023/05/05 04:06:10;;;;;;;6.95;3.40;;;11.10;99.90;;;;;;5073102;28;20036;-77
2023/05/05 04:08:36;;;;;;;4.72;3.30;;;11.10;99.90;;;;;;5056833;28;20169;-77
2023/05/05 04:11:02;;;;;;;6.57;3.43;;;11.20;99.90;;;;;;5073927;28;20047;-75
2023/05/05 04:13:28;;;;;;;7.47;3.38;;;11.20;99.90;;;;;;5077383;28;20804;-76
2023/05/05 04:15:54;;;;;;;5.63;3.58;;;11.20;99.90;;;;;;5061355;28;20077;-76
2023/05/05 04:18:20;;;;;;;;;;;11.20;99.90;;;;;;5077812;28;20507;-76
2023/05/05 04:20:46;;;;;;;5.90;3.50;;;11.20;99.90;;;;;;5060996;28;19950;-76
2023/05/05 04:23:11;;;;;;;7.28;3.30;;;11.20;99.90;;;;;;5076962;28;20048;-76
2023/05/05 04:25:37;;;;;;;7.33;3.33;;;11.20;99.90;;;;;;5076981;28;20086;-76
2023/05/05 04:28:04;;;;;;;7.72;3.97;;;11.20;99.90;;;;;;5060682;28;20343;-75
2023/05/05 04:30:29;;;;;;;7.07;3.90;;;11.20;99.90;;;;;;5076752;28;20052;-75
2023/05/05 04:32:55;;;;;;;8.68;3.88;;;11.20;99.90;;;;;;5076774;28;20078;-76
2023/05/05 04:35:21;;;;;;;8.45;4.18;;;11.00;99.90;;;;;;5076608;28;20082;-76
2023/05/05 04:37:47;;;;;;;6.95;4.03;;;11.00;99.90;;;;;;5076269;28;20036;-75
2023/05/05 04:40:13;;;;;;;9.95;4.20;;;10.90;99.90;;;;;;5076111;28;20108;-75
2023/05/05 04:42:38;;;;;;;9.13;4.32;;;10.80;99.90;;;;;;5059705;28;20036;-76
2023/05/05 04:45:05;;;;;;;7.83;4.10;;;10.70;99.90;;;;;;5076329;28;20438;-76
2023/05/05 04:47:35;;;;;;;11.73;4.85;;;10.60;99.90;;;;;;5059944;28;20282;-76
2023/05/05 04:50:00;;;;;;;7.70;4.65;;;10.50;99.90;;;;;;5074797;28;20480;-76
2023/05/05 04:52:26;;;;;;;7.53;4.00;;;10.40;99.90;;;;;;5059876;28;20036;-75
2023/05/05 04:54:52;;;;;;;6.97;4.43;;;10.30;99.90;;;;;;5060170;28;20051;-76
2023/05/05 04:57:17;;;;;;;13.83;4.60;;;10.30;99.90;;;;;;5059540;28;20094;-77
2023/05/05 04:59:43;;;;;;;6.95;4.38;;;10.30;99.90;;;;;;5059267;28;20048;-77
2023/05/05 05:02:09;;;;;;;8.60;4.40;;;10.30;99.90;;;;;;5059050;28;20036;-76
2023/05/05 05:04:34;;;;;;;8.97;4.77;;;10.30;99.90;;;;;;5059054;28;20278;-76
2023/05/05 05:07:00;;;;;;;7.80;4.70;;;10.20;99.90;;;;;;5075770;28;20036;-76
2023/05/05 05:09:26;;;;;;;7.97;4.45;;;10.10;99.90;;;;;;5075020;28;20031;-77
2023/05/05 05:11:51;;;;;;;9.60;5.30;;;10.00;99.90;;;;;;5058773;28;20032;-76
2023/05/05 05:14:17;;;;;;;8.97;4.80;;;10.00;99.90;;;;;;5058662;28;20032;-75
2023/05/05 05:16:43;;;;;;;10.67;5.30;;;10.00;99.90;;;;;;5075371;28;20289;-77
2023/05/05 05:19:08;;;;;;;10.53;5.60;;;9.90;99.90;;;;;;5075430;28;20298;-76
2023/05/05 05:21:35;;;;;;;9.40;5.50;;;9.90;99.90;;;;;;5041698;28;20032;-76
2023/05/05 05:24:00;;;;;;;11.27;5.22;;;9.90;99.90;;;;;;5057917;28;20293;-76
2023/05/05 05:26:26;;;;;;;10.45;4.95;;;9.90;99.90;;;;;;5074670;28;20040;-76
2023/05/05 05:28:52;;;;;;;8.80;5.03;;;9.90;99.90;;;;;;5075065;28;20062;-76
2023/05/05 05:31:17;;;;;;;10.20;5.20;;;9.90;99.90;;;;;;5058255;28;20132;-76
2023/05/05 05:33:43;;;;;;;16.27;5.37;;;9.90;99.90;;;;;;5075175;28;20050;-76
2023/05/05 05:36:09;;;;;;;9.65;5.10;;;9.80;99.90;;;;;;5074984;28;20385;-76
2023/05/05 05:38:35;;;;;;;10.82;5.13;;;9.80;99.90;;;;;;5057948;28;20168;-76
2023/05/05 05:41:05;;;;;;;7.93;4.70;;;9.90;99.90;;;;;;5058250;28;20061;-77
2023/05/05 05:43:31;;;;;;;8.60;5.10;;;10.00;99.90;;;;;;5074509;28;20336;-76
2023/05/05 05:45:57;;;;;;;11.23;5.03;;;10.10;99.90;;;;;;5075109;28;20471;-76
2023/05/05 05:48:27;;;;;;;6.50;4.15;;;10.20;99.90;;;;;;5075065;28;20402;-77
2023/05/05 05:50:53;;;;;;;9.10;4.75;;;10.40;99.90;;;;;;5075388;28;20097;-76
2023/05/05 05:53:19;;;;;;;10.93;5.13;;;10.60;99.90;;;;;;5074465;28;20042;-76
2023/05/05 05:55:48;;;;;;;8.48;4.93;;;10.80;99.90;;;;;;5074938;28;20118;-77
2023/05/05 05:58:15;;;;;;;10.38;5.28;;;11.00;99.90;;;;;;5074653;28;20067;-77
2023/05/05 06:00:41;;;;;;;6.82;4.45;;;11.00;99.90;;;;;;5070988;28;20048;-76
2023/05/05 06:03:06;;;;;;;9.75;4.75;;;11.10;99.90;;;;;;5072817;28;20048;-77
2023/05/05 06:05:32;;;;;;;10.03;5.87;;;11.10;99.90;;;;;;5071524;28;20044;-77
2023/05/05 06:07:58;;;;;;;6.73;4.97;;;11.20;99.90;;;;;;5054843;28;20291;-76
2023/05/05 06:10:23;;;;;;;11.38;4.43;;;11.20;99.90;;;;;;5070876;28;20360;-77
2023/05/05 06:12:49;;;;;;;7.67;4.30;;;11.30;99.90;;;;;;5054518;28;20550;-77
2023/05/05 06:15:15;;;;;;;9.30;5.15;;;11.30;99.90;;;;;;5054815;28;20484;-77
2023/05/05 06:17:40;;;;;;;6.93;4.63;;;11.40;99.90;;;;;;5070819;28;20045;-77
2023/05/05 06:20:06;;;;;;;9.15;4.50;;;11.40;99.90;;;;;;5071283;28;20044;-77
2023/05/05 06:22:32;;;;;;;9.20;5.07;;;11.40;99.90;;;;;;5068875;28;20050;-77
2023/05/05 06:24:58;;;;;;;6.80;4.13;;;11.50;99.90;;;;;;5054925;28;20115;-77
2023/05/05 06:27:23;;;;;;;10.85;4.70;;;11.50;99.90;;;;;;5054091;28;20283;-77
2023/05/05 06:29:49;;;;;;;6.83;4.40;;;11.60;99.90;;;;;;5070896;28;20045;-76
2023/05/05 06:32:15;;;;;;;11.53;4.40;;;11.70;99.90;;;;;;5054332;28;20293;-77
2023/05/05 06:34:43;;;;;;;7.97;4.45;;;11.70;99.90;;;;;;5053702;28;20076;-77
2023/05/05 06:37:09;;;;;;;12.20;4.93;;;11.70;99.90;;;;;;5070895;28;20050;-76
2023/05/05 06:39:35;;;;;;;8.02;4.20;;;11.80;99.90;;;;;;5037710;28;20115;-77
2023/05/05 06:42:02;;;;;;;10.45;4.72;;;11.80;99.90;;;;;;5070783;28;20043;-77
2023/05/05 06:44:29;;;;;;;8.95;4.70;;;11.80;99.90;;;;;;5053821;28;20044;-77
2023/05/05 06:46:55;;;;;;;9.65;4.47;;;11.90;99.90;;;;;;5054214;28;20114;-77
2023/05/05 06:49:21;;;;;;;8.10;4.97;;;11.90;99.90;;;;;;5054148;28;20601;-77
2023/05/05 06:51:47;;;;;;;9.53;4.90;;;11.90;99.90;;;;;;5070279;28;20040;-77
2023/05/05 06:54:13;;;;;;;7.45;4.47;;;11.90;99.90;;;;;;5070587;28;20330;-77
2023/05/05 06:56:38;;;;;;;7.78;4.78;;;12.00;99.90;;;;;;5071005;28;20105;-76
2023/05/05 06:59:04;;;;;;;9.38;4.60;;;12.20;99.90;;;;;;5071137;28;20048;-76
2023/05/05 07:01:29;;;;;;;6.95;4.13;;;12.70;99.90;;;;;;5072704;28;20040;-77
2023/05/05 07:03:55;;;;;;;10.73;5.53;;;13.20;99.90;;;;;;5073610;28;20044;-76
2023/05/05 07:06:21;;;;;;;7.20;4.50;;;13.70;99.90;;;;;;5058005;28;20043;-77
2023/05/05 07:08:47;;;;;;;11.45;4.50;;;14.00;99.90;;;;;;5074119;28;20040;-77
2023/05/05 07:11:13;;;;;;;7.90;4.33;;;14.30;99.90;;;;;;5074566;28;20044;-77
2023/05/05 07:13:38;;;;;;;6.80;4.50;;;14.70;99.90;;;;;;5074574;28;20278;-77
2023/05/05 07:16:04;;;;;;;6.70;4.50;;;14.80;99.90;;;;;;5057864;28;20044;-78
2023/05/05 07:18:30;;;;;;;6.40;4.13;;;14.80;99.90;;;;;;5058360;28;20036;-77
2023/05/05 07:20:55;;;;;;;8.23;4.70;;;15.00;99.90;;;;;;5074432;28;20044;-77
2023/05/05 07:23:21;;;;;;;10.93;4.97;;;15.20;99.90;;;;;;5074052;28;20098;-76
2023/05/05 07:25:47;;;;;;;7.38;4.30;;;15.30;99.90;;;;;;5074290;28;20059;-77
2023/05/05 07:28:14;;;;;;;7.50;4.80;;;15.60;99.90;;;;;;5057051;28;20040;-77
2023/05/05 07:30:40;;;;;;;;;;;15.80;99.90;;;;;;5074283;28;20047;-77
2023/05/05 07:33:06;;;;;;;8.55;4.82;;;16.10;99.90;;;;;;5073722;28;19923;-78
2023/05/05 07:35:31;;;;;;;10.93;5.03;;;16.30;99.90;;;;;;5057126;28;20040;-78
2023/05/05 07:37:57;;;;;;;8.13;4.97;;;16.30;99.90;;;;;;5074071;28;20520;-78
2023/05/05 07:40:23;;;;;;;8.80;5.05;;;16.20;99.90;;;;;;5056924;28;20036;-78
2023/05/05 07:42:48;;;;;;;8.23;5.10;;;16.30;99.90;;;;;;5073861;28;20097;-78
2023/05/05 07:45:14;;;;;;;6.97;4.10;;;16.40;99.90;;;;;;5074021;28;20059;-78
2023/05/05 07:47:40;;;;;;;8.02;4.53;;;16.50;99.90;;;;;;5076985;28;20032;-77
2023/05/05 07:50:06;;;;;;;9.00;4.68;;;16.70;99.90;;;;;;5077812;28;20040;-77
2023/05/05 07:52:32;;;;;;;6.75;4.32;;;16.90;99.90;;;;;;5077710;28;20113;-78
2023/05/05 07:54:57;;;;;;;8.80;5.57;;;17.20;99.90;;;;;;5078073;28;20353;-76
2023/05/05 07:57:23;;;;;;;7.85;4.75;;;17.30;99.90;;;;;;5077730;28;20044;-76
2023/05/05 07:59:49;;;;;;;10.90;5.00;;;17.40;99.90;;;;;;5077040;28;20051;-76
2023/05/05 08:02:14;;;;;;;7.25;4.97;;;17.50;99.90;;;;;;5077353;28;20044;-77
2023/05/05 08:04:41;;;;;;;6.68;5.00;;;17.60;99.90;;;;;;5077189;28;20541;-78
2023/05/05 08:07:08;;;;;;;8.40;5.00;;;17.70;99.90;;;;;;5077662;28;20317;-77
2023/05/05 08:09:35;;;;;;;8.80;4.85;;;17.80;99.90;;;;;;5077412;28;20040;-77
2023/05/05 08:12:01;;;;;;;10.48;5.60;;;18.00;99.90;;;;;;5104392;28;20036;-78
2023/05/05 08:14:27;;;;;;;7.57;4.53;;;18.00;99.90;;;;;;5060938;28;20400;-76
2023/05/05 08:16:53;;;;;;;10.00;5.28;;;18.20;99.90;;;;;;5076267;28;20052;-80
2023/05/05 08:19:19;;;;;;;7.78;5.75;;;18.50;99.90;;;;;;5076172;28;20411;-79
2023/05/05 08:21:45;;;;;;;11.55;5.18;;;18.60;99.90;;;;;;5076638;28;20035;-77
2023/05/05 08:24:10;;;;;;;9.23;5.30;;;18.40;99.90;;;;;;5076862;28;20032;-77
2023/05/05 08:26:36;;;;;;;8.55;4.85;;;18.60;99.90;;;;;;5076614;28;20074;-77
2023/05/05 08:29:02;;;;;;;8.27;5.10;;;18.70;99.90;;;;;;5076964;28;20048;-77
2023/05/05 08:31:32;;;;;;;8.43;5.55;;;18.80;99.90;;;;;;5043484;28;20118;-77
2023/05/05 08:33:57;;;;;;;9.85;5.57;;;19.10;99.90;;;;;;5059759;28;20489;-77
2023/05/05 08:36:24;;;;;;;8.98;5.45;;;19.30;99.90;;;;;;5059584;28;20138;-77
2023/05/05 08:38:49;;;;;;;;;;;19.30;99.90;;;;;;5059801;28;20063;-76
2023/05/05 08:41:18;;;;;;;7.03;5.40;;;18.90;99.90;;;;;;5076087;28;20383;-76
2023/05/05 08:43:45;;;;;;;9.48;5.55;;;19.10;99.90;;;;;;5059104;28;20119;-76
2023/05/05 08:46:11;;;;;;;9.90;5.43;;;19.50;99.90;;;;;;5075949;28;20047;-76
2023/05/05 08:48:41;;;;;;;9.20;5.95;;;19.70;99.90;;;;;;5075597;28;20039;-77
2023/05/05 08:51:12;;;;;;;10.48;5.50;;;20.00;99.90;;;;;;5076175;28;20040;-77
2023/05/05 08:53:53;;;;;;;10.23;5.82;;;19.90;99.90;;;;;;5059289;28;20044;-77
2023/05/05 08:56:20;;;;;;;8.13;5.50;;;20.30;99.90;;;;;;5075968;28;20036;-76
2023/05/05 08:58:47;;;;;;;7.97;5.72;;;20.30;99.90;;;;;;5074090;28;20043;-77
2023/05/05 09:01:14;;;;;;;8.95;5.68;;;20.20;99.90;;;;;;5075129;28;20055;-77
2023/05/05 09:03:40;;;;;;;8.13;5.80;;;20.80;99.90;;;;;;5058395;28;20074;-76
2023/05/05 09:06:05;;;;;;;;;;;21.20;99.90;;;;;;5076086;28;20495;-77
2023/05/05 09:08:32;;;;;;;9.65;6.60;;;21.60;99.90;;;;;;5075590;28;19923;-77
2023/05/05 09:10:59;;;;;;;9.25;7.05;;;21.90;99.90;;;;;;5058605;28;20040;-76
2023/05/05 09:13:25;;;;;;;10.70;7.10;;;21.90;99.90;;;;;;5075150;28;20160;-77
2023/05/05 09:15:50;;;;;;;;;;;22.20;99.90;;;;;;5075361;28;20036;-77
2023/05/05 09:18:16;;;;;;;9.38;6.95;;;22.60;99.90;;;;;;5075455;28;19943;-77
2023/05/05 09:20:42;;;;;;;;;;;22.70;99.90;;;;;;5059344;28;20127;-77
2023/05/05 09:23:15;;;;;;;9.65;7.20;;;23.00;99.90;;;;;;5075505;28;19923;-77
2023/05/05 09:25:44;;;;;;;13.80;7.82;;;23.20;99.90;;;;;;5074964;28;20071;-76
2023/05/05 09:28:16;;;;;;;9.60;7.80;;;23.40;99.90;;;;;;5075358;28;20051;-76
2023/05/05 09:30:43;;;;;;;8.65;7.28;;;23.50;99.90;;;;;;5074765;28;20048;-76
2023/05/05 09:33:09;;;;;;;12.10;7.13;;;23.60;99.90;;;;;;5074685;28;20040;-76
2023/05/05 09:35:53;;;;;;;9.95;7.78;;;23.40;99.90;;;;;;5074923;28;20349;-76
2023/05/05 09:38:20;;;;;;;10.85;7.03;;;23.10;99.90;;;;;;5074756;28;20160;-81
2023/05/05 09:40:50;;;;;;;9.73;7.65;;;23.00;99.90;;;;;;5074606;28;20044;-77
2023/05/05 09:43:18;;;;;;;9.25;7.28;;;23.30;99.90;;;;;;5074537;28;20364;-77
2023/05/05 13:05:09;;;;;;;11.40;4.40;;;22.50;99.90;;;;;;5129005;27;20318;-81
2023/05/05 13:07:34;;;;;;;;;;;22.20;99.90;;;;;;5128524;28;20038;-82
2023/05/05 13:10:09;;;;;;;11.10;4.20;;;22.10;99.90;;;;;;5111052;28;20267;-82
2023/05/05 13:12:35;;;;;;;6.68;3.50;;;21.80;99.90;;;;;;5110847;28;20505;-83
2023/05/05 13:15:00;;;;;;;;;;;21.50;99.90;;;;;;5128622;28;20122;-80
2023/05/05 13:17:26;;;;;;;7.43;3.88;;;21.40;99.90;;;;;;5127469;28;20002;-82
2023/05/05 13:19:52;;;;;;;8.80;4.60;;;21.20;99.90;;;;;;5128412;28;20084;-83
2023/05/05 13:22:17;;;;;;;7.63;5.07;;;21.00;99.90;;;;;;5110419;28;20039;-82
2023/05/05 13:24:45;;;;;;;8.43;4.88;;;20.90;99.90;;;;;;5127500;28;20031;-83
2023/05/05 13:27:11;;;;;;;12.38;6.93;;;20.50;99.90;;;;;;5127287;28;20039;-84
2023/05/05 13:29:37;;;;;;;8.77;4.82;;;20.20;99.90;;;;;;5110467;28;20034;-83
2023/05/05 13:32:03;;;;;;;9.60;5.75;;;20.10;99.90;;;;;;5127530;27;20027;-82
2023/05/05 13:34:28;;;;;;;9.07;5.80;;;20.00;99.90;;;;;;5109969;28;20047;-81
2023/05/05 13:36:54;;;;;;;12.45;6.72;;;19.80;99.90;;;;;;5127412;28;20042;-81
2023/05/05 13:39:20;;;;;;;16.05;6.47;;;19.40;99.90;;;;;;5127510;28;20050;-83
2023/05/05 13:41:46;;;;;;;13.65;6.93;;;19.00;99.90;;;;;;5110047;28;20032;-83
2023/05/05 13:44:12;;;;;;;12.00;6.13;;;18.60;99.90;;;;;;5126722;28;20046;-82
2023/05/05 13:46:38;;;;;;;12.25;6.38;;;18.10;99.90;;;;;;5127468;28;20453;-83
2023/05/05 13:49:04;;;;;;;8.38;4.57;;;17.70;99.90;;;;;;5111196;28;20043;-83
2023/05/05 13:51:30;;;;;;;8.02;4.75;;;17.40;99.90;;;;;;5109886;28;20039;-83
2023/05/05 13:53:55;;;;;;;8.35;4.47;;;17.30;99.90;;;;;;5111667;28;20046;-83
2023/05/05 13:56:24;;;;;;;10.35;5.18;;;17.30;99.90;;;;;;5094684;28;20126;-83
2023/05/05 13:58:50;;;;;;;8.68;5.72;;;17.20;99.90;;;;;;5112533;28;20039;-83
2023/05/05 14:01:16;;;;;;;10.18;6.05;;;17.20;99.90;;;;;;5110009;28;20039;-83
2023/05/05 14:03:42;;;;;;;12.65;5.10;;;17.20;99.90;;;;;;5109910;28;20432;-83
2023/05/05 14:06:08;;;;;;;8.98;4.30;;;17.20;99.90;;;;;;5127523;28;20047;-84
2023/05/05 14:08:34;;;;;;;10.25;4.80;;;17.20;99.90;;;;;;5109833;28;20039;-82
2023/05/05 14:11:00;;;;;;;;;;;17.10;99.90;;;;;;5102072;27;20089;-83
2023/05/05 14:13:26;;;;;;;11.35;2.78;;;16.90;99.90;;;;;;5106171;28;20351;-83
2023/05/05 14:15:52;;;;;;;5.25;2.20;;;16.80;99.90;;;;;;5095641;28;20035;-84
2023/05/05 14:18:18;;;;;;;5.53;1.73;;;16.40;99.90;;;;;;5075606;28;20039;-81
2023/05/05 14:20:43;;;;;;;5.28;1.77;;;16.10;99.90;;;;;;5112780;28;20666;-82
2023/05/05 14:23:09;;;;;;;3.45;1.33;;;15.90;99.90;;;;;;5097353;28;20148;-82
2023/05/05 14:25:35;;;;;;;6.72;2.13;;;15.70;99.90;;;;;;5111780;28;20217;-81
2023/05/05 14:28:00;;;;;;;8.18;1.83;;;15.60;99.90;;;;;;5096031;28;20051;-83
2023/05/05 14:30:26;;;;;;;3.97;1.60;;;15.40;99.90;;;;;;5092476;28;20145;-82
2023/05/05 14:32:52;;;;;;;5.38;1.42;;;15.40;99.90;;;;;;5113945;28;20114;-83
2023/05/05 14:35:17;;;;;;;4.53;2.00;;;15.30;99.90;;;;;;5098538;28;20043;-83
2023/05/05 14:37:43;;;;;;;3.47;1.38;;;15.30;99.90;;;;;;5116132;28;20031;-82
2023/05/05 14:40:09;;;;;;;2.72;0.98;;;15.30;99.90;;;;;;5096678;28;20031;-83
2023/05/05 14:42:36;;;;;;;3.53;1.10;;;15.30;99.90;;;;;;5096532;28;20051;-82
2023/05/05 14:45:02;;;;;;;4.30;1.20;;;15.30;99.90;;;;;;5112143;28;20115;-83
2023/05/05 14:47:28;;;;;;;6.95;1.55;;;15.30;99.90;;;;;;5112115;28;20318;-83
2023/05/05 14:49:54;;;;;;;4.45;1.13;;;15.30;99.90;;;;;;5079114;28;20486;-82
2023/05/05 14:52:19;;;;;;;4.00;1.05;;;15.40;99.90;;;;;;5094721;28;20038;-81
2023/05/05 14:54:45;;;;;;;3.42;1.00;;;15.40;99.90;;;;;;5076492;28;20042;-83
2023/05/05 14:57:11;;;;;;;2.20;1.15;;;15.50;99.90;;;;;;5094261;28;20045;-82
2023/05/05 14:59:37;;;;;;;3.72;0.80;;;15.50;99.90;;;;;;5093744;28;20074;-82
2023/05/05 15:02:02;;;;;;;2.55;0.82;;;15.60;99.90;;;;;;5111291;28;20110;-82
2023/05/05 15:04:28;;;;;;;3.88;1.02;;;15.60;99.90;;;;;;5077661;28;20047;-81
2023/05/05 15:06:54;;;;;;;3.00;0.82;;;15.60;99.90;;;;;;5094647;28;20360;-81
2023/05/05 15:09:19;;;;;;;1.90;0.70;;;15.60;99.90;;;;;;5096017;28;20042;-82
2023/05/05 15:11:46;;;;;;;5.57;1.88;;;15.60;99.90;;;;;;5096555;28;20050;-82
2023/05/05 15:14:11;;;;;;;5.53;1.30;;;15.70;99.90;;;;;;5094771;28;20049;-82
2023/05/05 15:16:37;;;;;;;4.43;1.10;;;15.70;99.90;;;;;;5076685;28;20035;-83
2023/05/05 15:19:03;;;;;;;2.80;0.85;;;15.70;99.90;;;;;;5095171;28;20039;-83
2023/05/05 15:21:29;;;;;;;4.95;1.30;;;15.60;99.90;;;;;;5094299;28;20036;-81
2023/05/05 15:23:54;;;;;;;5.15;1.20;;;15.60;99.90;;;;;;5076452;28;20552;-81
2023/05/05 15:26:20;;;;;;;5.25;1.10;;;15.50;99.90;;;;;;5092149;28;20051;-82
2023/05/05 15:28:46;;;;;;;3.50;1.45;;;15.50;99.90;;;;;;5075835;28;20096;-82
2023/05/05 15:31:11;;;;;;;4.93;1.50;;;15.50;99.90;;;;;;5110863;28;20432;-83
2023/05/05 15:33:38;;;;;;;2.15;0.90;;;15.60;99.90;;;;;;5093420;28;20067;-82
2023/05/05 15:36:04;;;;;;;3.97;1.40;;;15.50;99.90;;;;;;5096200;28;20075;-83
2023/05/05 15:38:30;;;;;;;4.18;1.20;;;15.60;99.90;;;;;;5092150;28;20073;-82
2023/05/05 15:40:55;;;;;;;5.72;1.65;;;15.60;99.90;;;;;;5092875;28;20540;-83
2023/05/05 15:43:21;;;;;;;4.10;1.40;;;15.70;99.90;;;;;;5076644;28;20035;-82
2023/05/05 15:45:47;;;;;;;3.70;1.08;;;15.60;99.90;;;;;;5093433;28;20051;-81
2023/05/05 15:48:12;;;;;;;4.00;1.48;;;15.70;99.90;;;;;;5108537;28;20475;-84
2023/05/05 15:50:38;;;;;;;5.28;1.60;;;15.60;99.90;;;;;;5092698;28;20844;-81
2023/05/05 15:53:04;;;;;;;5.32;1.48;;;15.70;99.90;;;;;;5079169;28;20049;-84
2023/05/05 15:55:30;;;;;;;6.40;1.35;;;15.70;99.90;;;;;;5110499;28;20128;-83
2023/05/05 15:57:55;;;;;;;4.53;1.35;;;15.70;99.90;;;;;;5116712;28;20575;-83
2023/05/05 16:00:21;;;;;;;2.83;2.03;;;15.60;99.90;;;;;;5111935;28;20058;-82
2023/05/05 16:02:47;;;;;;;3.53;1.70;;;15.60;99.90;;;;;;5092609;28;20168;-81
2023/05/05 16:05:13;;;;;;;4.53;1.48;;;15.70;99.90;;;;;;5093699;28;20043;-82
2023/05/05 16:07:39;;;;;;;3.95;1.70;;;15.50;99.90;;;;;;5093951;28;20822;-82